sensor_id;sensor_type;location;lat;lon;timestamp;P1;durP1;ratioP1;P2;durP2;ratioP2
56680;SDS011;42558;52.388;13.390;2023-06-24T00:00:39;30.97;;;19.95;;
56680;SDS011;42558;52.388;13.390;2023-06-24T00:03:09;29.64;;;21.66;;
56680;SDS011;42558;52.388;13.390;2023-06-24T00:05:42;31.16;;;23.18;;
56680;SDS011;42558;52.388;13.390;2023-06-24T00:08:15;26.98;;;20.52;;
56680;SDS011;42558;52.388;13.390;2023-06-24T00:10:48;29.64;;;21.28;;
56680;SDS011;42558;52.388;13.390;2023-06-24T00:13:18;31.54;;;22.61;;
56680;SDS011;42558;52.388;13.390;2023-06-24T00:15:48;31.92;;;22.61;;
56680;SDS011;42558;52.388;13.390;2023-06-24T00:18:18;29.07;;;21.85;;
56680;SDS011;42558;52.388;13.390;2023-06-24T00:20:48;30.97;;;22.23;;
56680;SDS011;42558;52.388;13.390;2023-06-24T00:23:22;30.59;;;20.90;;
56680;SDS011;42558;52.388;13.390;2023-06-24T00:25:56;31.92;;;22.80;;
56680;SDS011;42558;52.388;13.390;2023-06-24T00:28:27;35.34;;;23.56;;
56680;SDS011;42558;52.388;13.390;2023-06-24T00:30:57;33.63;;;23.94;;
56680;SDS011;42558;52.388;13.390;2023-06-24T00:33:27;29.83;;;22.42;;
56680;SDS011;42558;52.388;13.390;2023-06-24T00:35:57;31.54;;;23.37;;
56680;SDS011;42558;52.388;13.390;2023-06-24T00:38:27;38.57;;;21.85;;
56680;SDS011;42558;52.388;13.390;2023-06-24T00:41:01;34.20;;;26.41;;
56680;SDS011;42558;52.388;13.390;2023-06-24T00:43:31;43.13;;;27.36;;
56680;SDS011;42558;52.388;13.390;2023-06-24T00:46:02;40.09;;;27.36;;
56680;SDS011;42558;52.388;13.390;2023-06-24T00:48:32;41.80;;;28.50;;
56680;SDS011;42558;52.388;13.390;2023-06-24T00:51:02;42.37;;;28.12;;
56680;SDS011;42558;52.388;13.390;2023-06-24T00:53:32;47.88;;;29.45;;
56680;SDS011;42558;52.388;13.390;2023-06-24T00:56:02;40.28;;;29.64;;
56680;SDS011;42558;52.388;13.390;2023-06-24T00:58:35;45.03;;;30.97;;
56680;SDS011;42558;52.388;13.390;2023-06-24T01:01:09;46.55;;;30.97;;
56680;SDS011;42558;52.388;13.390;2023-06-24T01:03:38;44.65;;;32.87;;
56680;SDS011;42558;52.388;13.390;2023-06-24T01:06:08;44.65;;;30.59;;
56680;SDS011;42558;52.388;13.390;2023-06-24T01:08:39;43.70;;;30.78;;
56680;SDS011;42558;52.388;13.390;2023-06-24T01:11:10;45.60;;;32.87;;
56680;SDS011;42558;52.388;13.390;2023-06-24T01:13:40;42.75;;;30.97;;
56680;SDS011;42558;52.388;13.390;2023-06-24T01:16:16;48.45;;;33.06;;
56680;SDS011;42558;52.388;13.390;2023-06-24T01:31:47;46.93;;;31.73;;
56680;SDS011;42558;52.388;13.390;2023-06-24T01:34:35;42.18;;;29.83;;
56680;SDS011;42558;52.388;13.390;2023-06-24T01:37:24;40.85;;;28.88;;
56680;SDS011;42558;52.388;13.390;2023-06-24T01:40:04;39.14;;;29.26;;
56680;SDS011;42558;52.388;13.390;2023-06-24T01:42:45;42.94;;;31.16;;
56680;SDS011;42558;52.388;13.390;2023-06-24T01:45:23;43.89;;;32.68;;
56680;SDS011;42558;52.388;13.390;2023-06-24T01:48:15;46.55;;;30.78;;
56680;SDS011;42558;52.388;13.390;2023-06-24T01:50:58;40.28;;;29.64;;
56680;SDS011;42558;52.388;13.390;2023-06-24T01:53:34;45.41;;;33.06;;
56680;SDS011;42558;52.388;13.390;2023-06-24T01:56:07;43.51;;;31.54;;
56680;SDS011;42558;52.388;13.390;2023-06-24T01:58:43;47.12;;;33.06;;
56680;SDS011;42558;52.388;13.390;2023-06-24T02:01:16;45.79;;;34.58;;
56680;SDS011;42558;52.388;13.390;2023-06-24T02:03:48;48.07;;;33.63;;
56680;SDS011;42558;52.388;13.390;2023-06-24T02:06:21;49.21;;;30.97;;
56680;SDS011;42558;52.388;13.390;2023-06-24T02:08:54;43.89;;;30.59;;
56680;SDS011;42558;52.388;13.390;2023-06-24T02:11:26;41.61;;;30.02;;
56680;SDS011;42558;52.388;13.390;2023-06-24T02:14:01;46.93;;;32.11;;
56680;SDS011;42558;52.388;13.390;2023-06-24T02:16:35;47.31;;;30.59;;
56680;SDS011;42558;52.388;13.390;2023-06-24T02:19:06;43.13;;;31.16;;
56680;SDS011;42558;52.388;13.390;2023-06-24T02:21:39;44.08;;;29.64;;
56680;SDS011;42558;52.388;13.390;2023-06-24T02:24:11;41.61;;;28.69;;
56680;SDS011;42558;52.388;13.390;2023-06-24T02:26:42;43.51;;;30.59;;
56680;SDS011;42558;52.388;13.390;2023-06-24T02:29:12;41.61;;;29.83;;
56680;SDS011;42558;52.388;13.390;2023-06-24T02:31:43;43.51;;;29.83;;
56680;SDS011;42558;52.388;13.390;2023-06-24T02:34:15;38.95;;;26.98;;
56680;SDS011;42558;52.388;13.390;2023-06-24T02:36:46;34.39;;;26.98;;
56680;SDS011;42558;52.388;13.390;2023-06-24T02:39:15;34.96;;;26.60;;
56680;SDS011;42558;52.388;13.390;2023-06-24T02:41:45;39.33;;;26.22;;
56680;SDS011;42558;52.388;13.390;2023-06-24T02:44:17;32.87;;;25.65;;
56680;SDS011;42558;52.388;13.390;2023-06-24T02:46:48;37.43;;;26.41;;
56680;SDS011;42558;52.388;13.390;2023-06-24T02:49:21;33.06;;;25.46;;
56680;SDS011;42558;52.388;13.390;2023-06-24T02:51:52;33.44;;;24.13;;
56680;SDS011;42558;52.388;13.390;2023-06-24T02:54:22;32.30;;;24.89;;
56680;SDS011;42558;52.388;13.390;2023-06-24T02:56:54;33.82;;;25.08;;
56680;SDS011;42558;52.388;13.390;2023-06-24T02:59:29;34.01;;;23.18;;
56680;SDS011;42558;52.388;13.390;2023-06-24T03:02:00;32.68;;;23.18;;
56680;SDS011;42558;52.388;13.390;2023-06-24T03:04:31;34.96;;;24.70;;
56680;SDS011;42558;52.388;13.390;2023-06-24T03:07:01;34.20;;;24.13;;
56680;SDS011;42558;52.388;13.390;2023-06-24T03:09:34;38.76;;;26.22;;
56680;SDS011;42558;52.388;13.390;2023-06-24T03:12:05;33.82;;;22.99;;
56680;SDS011;42558;52.388;13.390;2023-06-24T03:14:36;35.53;;;22.61;;
56680;SDS011;42558;52.388;13.390;2023-06-24T03:17:04;36.29;;;22.80;;
56680;SDS011;42558;52.388;13.390;2023-06-24T03:19:34;32.68;;;20.90;;
56680;SDS011;42558;52.388;13.390;2023-06-24T03:22:03;28.50;;;19.76;;
56680;SDS011;42558;52.388;13.390;2023-06-24T03:24:33;39.52;;;21.47;;
56680;SDS011;42558;52.388;13.390;2023-06-24T03:27:02;34.20;;;21.28;;
56680;SDS011;42558;52.388;13.390;2023-06-24T03:29:30;33.06;;;21.66;;
56680;SDS011;42558;52.388;13.390;2023-06-24T03:32:00;33.25;;;20.90;;
56680;SDS011;42558;52.388;13.390;2023-06-24T03:34:29;33.06;;;20.90;;
56680;SDS011;42558;52.388;13.390;2023-06-24T03:36:57;30.02;;;19.38;;
56680;SDS011;42558;52.388;13.390;2023-06-24T03:39:26;29.07;;;20.52;;
56680;SDS011;42558;52.388;13.390;2023-06-24T03:41:56;32.68;;;21.47;;
56680;SDS011;42558;52.388;13.390;2023-06-24T03:44:25;28.50;;;19.57;;
56680;SDS011;42558;52.388;13.390;2023-06-24T03:46:55;30.21;;;20.14;;
56680;SDS011;42558;52.388;13.390;2023-06-24T03:49:25;23.75;;;18.43;;
56680;SDS011;42558;52.388;13.390;2023-06-24T03:51:55;32.68;;;20.90;;
56680;SDS011;42558;52.388;13.390;2023-06-24T03:54:25;32.87;;;22.04;;
56680;SDS011;42558;52.388;13.390;2023-06-24T03:56:55;32.87;;;21.09;;
56680;SDS011;42558;52.388;13.390;2023-06-24T03:59:25;27.17;;;19.19;;
56680;SDS011;42558;52.388;13.390;2023-06-24T04:01:55;28.50;;;19.57;;
56680;SDS011;42558;52.388;13.390;2023-06-24T04:04:26;32.30;;;20.33;;
56680;SDS011;42558;52.388;13.390;2023-06-24T04:06:56;28.12;;;19.95;;
56680;SDS011;42558;52.388;13.390;2023-06-24T04:09:26;29.07;;;18.24;;
56680;SDS011;42558;52.388;13.390;2023-06-24T04:11:56;28.88;;;20.71;;
56680;SDS011;42558;52.388;13.390;2023-06-24T04:14:24;30.40;;;19.76;;
56680;SDS011;42558;52.388;13.390;2023-06-24T04:16:54;30.78;;;19.57;;
56680;SDS011;42558;52.388;13.390;2023-06-24T04:19:23;28.69;;;19.38;;
56680;SDS011;42558;52.388;13.390;2023-06-24T04:21:53;27.55;;;19.57;;
56680;SDS011;42558;52.388;13.390;2023-06-24T04:24:23;30.59;;;20.71;;
56680;SDS011;42558;52.388;13.390;2023-06-24T04:26:53;28.50;;;20.14;;
56680;SDS011;42558;52.388;13.390;2023-06-24T04:29:24;29.64;;;19.00;;
56680;SDS011;42558;52.388;13.390;2023-06-24T04:31:54;28.88;;;18.05;;
56680;SDS011;42558;52.388;13.390;2023-06-24T04:34:24;30.97;;;21.47;;
56680;SDS011;42558;52.388;13.390;2023-06-24T04:36:54;31.73;;;20.90;;
56680;SDS011;42558;52.388;13.390;2023-06-24T04:39:23;27.36;;;18.43;;
56680;SDS011;42558;52.388;13.390;2023-06-24T04:41:53;27.55;;;18.81;;
56680;SDS011;42558;52.388;13.390;2023-06-24T04:44:22;31.73;;;19.76;;
56680;SDS011;42558;52.388;13.390;2023-06-24T04:46:52;28.31;;;19.00;;
56680;SDS011;42558;52.388;13.390;2023-06-24T04:49:22;31.35;;;20.14;;
56680;SDS011;42558;52.388;13.390;2023-06-24T04:51:52;23.37;;;18.05;;
56680;SDS011;42558;52.388;13.390;2023-06-24T04:54:22;29.83;;;19.76;;
56680;SDS011;42558;52.388;13.390;2023-06-24T04:56:52;30.59;;;20.33;;
56680;SDS011;42558;52.388;13.390;2023-06-24T04:59:24;30.97;;;20.14;;
56680;SDS011;42558;52.388;13.390;2023-06-24T05:01:54;29.64;;;19.19;;
56680;SDS011;42558;52.388;13.390;2023-06-24T05:04:23;30.78;;;20.33;;
56680;SDS011;42558;52.388;13.390;2023-06-24T05:06:51;30.59;;;19.38;;
56680;SDS011;42558;52.388;13.390;2023-06-24T05:09:21;29.07;;;19.57;;
56680;SDS011;42558;52.388;13.390;2023-06-24T05:11:48;26.22;;;18.62;;
56680;SDS011;42558;52.388;13.390;2023-06-24T05:14:18;29.64;;;18.81;;
56680;SDS011;42558;52.388;13.390;2023-06-24T05:16:48;31.73;;;20.71;;
56680;SDS011;42558;52.388;13.390;2023-06-24T05:19:15;26.41;;;19.19;;
56680;SDS011;42558;52.388;13.390;2023-06-24T05:21:46;27.55;;;18.24;;
56680;SDS011;42558;52.388;13.390;2023-06-24T05:24:16;37.05;;;21.09;;
56680;SDS011;42558;52.388;13.390;2023-06-24T05:26:48;29.26;;;18.62;;
56680;SDS011;42558;52.388;13.390;2023-06-24T05:29:18;27.93;;;18.81;;
56680;SDS011;42558;52.388;13.390;2023-06-24T05:31:48;25.84;;;18.43;;
56680;SDS011;42558;52.388;13.390;2023-06-24T05:34:18;26.22;;;18.43;;
56680;SDS011;42558;52.388;13.390;2023-06-24T05:36:48;27.17;;;17.86;;
56680;SDS011;42558;52.388;13.390;2023-06-24T05:39:19;30.02;;;18.05;;
56680;SDS011;42558;52.388;13.390;2023-06-24T05:41:49;27.74;;;17.67;;
56680;SDS011;42558;52.388;13.390;2023-06-24T05:44:20;26.03;;;17.48;;
56680;SDS011;42558;52.388;13.390;2023-06-24T05:46:50;26.22;;;16.72;;
56680;SDS011;42558;52.388;13.390;2023-06-24T05:49:20;24.89;;;16.15;;
56680;SDS011;42558;52.388;13.390;2023-06-24T05:51:50;26.79;;;16.72;;
56680;SDS011;42558;52.388;13.390;2023-06-24T05:54:20;26.60;;;18.24;;
56680;SDS011;42558;52.388;13.390;2023-06-24T05:56:50;24.70;;;16.72;;
56680;SDS011;42558;52.388;13.390;2023-06-24T05:59:20;24.51;;;15.58;;
56680;SDS011;42558;52.388;13.390;2023-06-24T06:01:50;22.80;;;15.96;;
56680;SDS011;42558;52.388;13.390;2023-06-24T06:04:20;30.40;;;16.53;;
56680;SDS011;42558;52.388;13.390;2023-06-24T06:06:50;23.18;;;15.77;;
56680;SDS011;42558;52.388;13.390;2023-06-24T06:09:17;24.51;;;15.96;;
56680;SDS011;42558;52.388;13.390;2023-06-24T06:11:44;25.84;;;15.58;;
56680;SDS011;42558;52.388;13.390;2023-06-24T06:14:14;23.56;;;14.44;;
56680;SDS011;42558;52.388;13.390;2023-06-24T06:16:44;21.28;;;15.01;;
56680;SDS011;42558;52.388;13.390;2023-06-24T06:19:14;27.36;;;15.20;;
56680;SDS011;42558;52.388;13.390;2023-06-24T06:21:44;20.71;;;14.25;;
56680;SDS011;42558;52.388;13.390;2023-06-24T06:24:13;26.03;;;14.25;;
56680;SDS011;42558;52.388;13.390;2023-06-24T06:26:44;22.42;;;14.06;;
56680;SDS011;42558;52.388;13.390;2023-06-24T06:29:14;22.80;;;15.77;;
56680;SDS011;42558;52.388;13.390;2023-06-24T06:31:44;19.19;;;13.68;;
56680;SDS011;42558;52.388;13.390;2023-06-24T06:34:14;19.95;;;13.87;;
56680;SDS011;42558;52.388;13.390;2023-06-24T06:36:44;19.76;;;13.68;;
56680;SDS011;42558;52.388;13.390;2023-06-24T06:39:14;17.86;;;13.49;;
56680;SDS011;42558;52.388;13.390;2023-06-24T06:41:44;22.23;;;14.06;;
56680;SDS011;42558;52.388;13.390;2023-06-24T06:44:15;19.76;;;13.30;;
56680;SDS011;42558;52.388;13.390;2023-06-24T06:46:45;18.24;;;13.49;;
56680;SDS011;42558;52.388;13.390;2023-06-24T06:49:15;20.52;;;14.06;;
56680;SDS011;42558;52.388;13.390;2023-06-24T06:51:45;20.52;;;12.35;;
56680;SDS011;42558;52.388;13.390;2023-06-24T06:54:15;16.15;;;12.73;;
56680;SDS011;42558;52.388;13.390;2023-06-24T06:56:45;20.90;;;12.92;;
56680;SDS011;42558;52.388;13.390;2023-06-24T06:59:15;21.28;;;12.73;;
56680;SDS011;42558;52.388;13.390;2023-06-24T07:01:45;20.14;;;12.73;;
56680;SDS011;42558;52.388;13.390;2023-06-24T07:04:16;17.29;;;11.40;;
56680;SDS011;42558;52.388;13.390;2023-06-24T07:06:46;20.14;;;12.54;;
56680;SDS011;42558;52.388;13.390;2023-06-24T07:09:16;18.43;;;12.35;;
56680;SDS011;42558;52.388;13.390;2023-06-24T07:11:44;15.39;;;12.16;;
56680;SDS011;42558;52.388;13.390;2023-06-24T07:14:12;15.01;;;11.59;;
56680;SDS011;42558;52.388;13.390;2023-06-24T07:16:41;16.34;;;12.16;;
56680;SDS011;42558;52.388;13.390;2023-06-24T07:19:09;19.95;;;12.16;;
56680;SDS011;42558;52.388;13.390;2023-06-24T07:21:38;16.72;;;11.40;;
56680;SDS011;42558;52.388;13.390;2023-06-24T07:24:09;13.68;;;11.59;;
56680;SDS011;42558;52.388;13.390;2023-06-24T07:26:39;15.58;;;10.26;;
56680;SDS011;42558;52.388;13.390;2023-06-24T07:29:08;15.20;;;10.64;;
56680;SDS011;42558;52.388;13.390;2023-06-24T07:31:37;14.44;;;9.88;;
56680;SDS011;42558;52.388;13.390;2023-06-24T07:34:05;16.15;;;9.31;;
56680;SDS011;42558;52.388;13.390;2023-06-24T07:36:33;15.96;;;9.50;;
56680;SDS011;42558;52.388;13.390;2023-06-24T07:39:04;11.97;;;9.12;;
56680;SDS011;42558;52.388;13.390;2023-06-24T07:41:35;14.82;;;10.26;;
56680;SDS011;42558;52.388;13.390;2023-06-24T07:44:05;14.06;;;9.69;;
56680;SDS011;42558;52.388;13.390;2023-06-24T07:46:35;12.73;;;10.07;;
56680;SDS011;42558;52.388;13.390;2023-06-24T07:49:05;13.30;;;9.31;;
56680;SDS011;42558;52.388;13.390;2023-06-24T07:51:35;12.73;;;8.36;;
56680;SDS011;42558;52.388;13.390;2023-06-24T07:54:05;14.63;;;9.50;;
56680;SDS011;42558;52.388;13.390;2023-06-24T07:56:35;14.06;;;9.31;;
56680;SDS011;42558;52.388;13.390;2023-06-24T07:59:05;15.20;;;10.83;;
56680;SDS011;42558;52.388;13.390;2023-06-24T08:01:35;15.58;;;10.45;;
56680;SDS011;42558;52.388;13.390;2023-06-24T08:04:05;13.87;;;10.64;;
56680;SDS011;42558;52.388;13.390;2023-06-24T08:06:35;13.68;;;11.21;;
56680;SDS011;42558;52.388;13.390;2023-06-24T08:09:05;13.30;;;9.31;;
56680;SDS011;42558;52.388;13.390;2023-06-24T08:11:35;15.96;;;9.88;;
56680;SDS011;42558;52.388;13.390;2023-06-24T08:14:06;13.49;;;9.69;;
56680;SDS011;42558;52.388;13.390;2023-06-24T08:16:38;14.63;;;9.69;;
56680;SDS011;42558;52.388;13.390;2023-06-24T08:19:10;12.92;;;9.50;;
56680;SDS011;42558;52.388;13.390;2023-06-24T08:21:40;11.97;;;9.12;;
56680;SDS011;42558;52.388;13.390;2023-06-24T08:24:11;15.58;;;9.69;;
56680;SDS011;42558;52.388;13.390;2023-06-24T08:26:41;16.15;;;9.69;;
56680;SDS011;42558;52.388;13.390;2023-06-24T08:29:11;13.49;;;9.50;;
56680;SDS011;42558;52.388;13.390;2023-06-24T08:31:40;15.96;;;10.64;;
56680;SDS011;42558;52.388;13.390;2023-06-24T08:34:11;13.68;;;9.31;;
56680;SDS011;42558;52.388;13.390;2023-06-24T08:36:41;15.01;;;10.26;;
56680;SDS011;42558;52.388;13.390;2023-06-24T08:39:12;14.25;;;10.26;;
56680;SDS011;42558;52.388;13.390;2023-06-24T08:41:42;14.06;;;9.88;;
56680;SDS011;42558;52.388;13.390;2023-06-24T08:44:13;15.01;;;9.31;;
56680;SDS011;42558;52.388;13.390;2023-06-24T08:46:44;14.06;;;9.69;;
56680;SDS011;42558;52.388;13.390;2023-06-24T08:52:03;16.15;;;9.12;;
56680;SDS011;42558;52.388;13.390;2023-06-24T08:54:40;12.54;;;8.74;;
56680;SDS011;42558;52.388;13.390;2023-06-24T08:57:12;13.87;;;8.17;;
56680;SDS011;42558;52.388;13.390;2023-06-24T08:59:45;20.14;;;9.31;;
56680;SDS011;42558;52.388;13.390;2023-06-24T09:02:16;13.68;;;10.07;;
56680;SDS011;42558;52.388;13.390;2023-06-24T09:04:46;13.68;;;8.93;;
56680;SDS011;42558;52.388;13.390;2023-06-24T09:07:27;12.16;;;8.36;;
56680;SDS011;42558;52.388;13.390;2023-06-24T09:09:58;14.06;;;9.31;;
56680;SDS011;42558;52.388;13.390;2023-06-24T09:12:34;13.49;;;7.98;;
56680;SDS011;42558;52.388;13.390;2023-06-24T09:15:05;13.49;;;8.36;;
56680;SDS011;42558;52.388;13.390;2023-06-24T09:17:44;15.01;;;9.31;;
56680;SDS011;42558;52.388;13.390;2023-06-24T09:20:19;11.78;;;8.36;;
56680;SDS011;42558;52.388;13.390;2023-06-24T09:22:51;12.73;;;9.12;;
56680;SDS011;42558;52.388;13.390;2023-06-24T09:25:19;13.68;;;8.36;;
56680;SDS011;42558;52.388;13.390;2023-06-24T09:27:48;13.11;;;8.93;;
56680;SDS011;42558;52.388;13.390;2023-06-24T09:30:20;12.35;;;8.55;;
56680;SDS011;42558;52.388;13.390;2023-06-24T09:32:51;12.35;;;8.17;;
56680;SDS011;42558;52.388;13.390;2023-06-24T09:35:24;13.11;;;7.60;;
56680;SDS011;42558;52.388;13.390;2023-06-24T09:37:56;12.73;;;7.22;;
56680;SDS011;42558;52.388;13.390;2023-06-24T09:40:29;11.02;;;8.17;;
56680;SDS011;42558;52.388;13.390;2023-06-24T09:42:59;10.45;;;8.36;;
56680;SDS011;42558;52.388;13.390;2023-06-24T09:45:32;11.97;;;9.12;;
56680;SDS011;42558;52.388;13.390;2023-06-24T09:48:03;12.54;;;7.98;;
56680;SDS011;42558;52.388;13.390;2023-06-24T09:50:34;11.40;;;7.98;;
56680;SDS011;42558;52.388;13.390;2023-06-24T09:53:04;11.59;;;7.98;;
56680;SDS011;42558;52.388;13.390;2023-06-24T09:55:36;13.30;;;8.36;;
56680;SDS011;42558;52.388;13.390;2023-06-24T09:58:13;11.40;;;7.98;;
56680;SDS011;42558;52.388;13.390;2023-06-24T10:00:46;10.07;;;7.79;;
56680;SDS011;42558;52.388;13.390;2023-06-24T10:03:17;11.59;;;7.98;;
56680;SDS011;42558;52.388;13.390;2023-06-24T10:05:48;12.16;;;7.98;;
56680;SDS011;42558;52.388;13.390;2023-06-24T10:08:19;10.26;;;7.41;;
56680;SDS011;42558;52.388;13.390;2023-06-24T10:14:43;10.64;;;7.22;;
56680;SDS011;42558;52.388;13.390;2023-06-24T10:17:14;11.40;;;7.22;;
56680;SDS011;42558;52.388;13.390;2023-06-24T10:19:44;12.16;;;5.89;;
56680;SDS011;42558;52.388;13.390;2023-06-24T10:22:14;12.73;;;7.22;;
56680;SDS011;42558;52.388;13.390;2023-06-24T10:24:46;12.54;;;6.84;;
56680;SDS011;42558;52.388;13.390;2023-06-24T10:27:19;10.45;;;7.41;;
56680;SDS011;42558;52.388;13.390;2023-06-24T10:29:53;10.64;;;6.65;;
56680;SDS011;42558;52.388;13.390;2023-06-24T10:32:39;9.88;;;6.08;;
56680;SDS011;42558;52.388;13.390;2023-06-24T10:35:28;14.44;;;6.84;;
56680;SDS011;42558;52.388;13.390;2023-06-24T10:38:01;19.00;;;7.03;;
56680;SDS011;42558;52.388;13.390;2023-06-24T10:40:38;10.07;;;6.84;;
56680;SDS011;42558;52.388;13.390;2023-06-24T10:43:25;9.88;;;6.84;;
56680;SDS011;42558;52.388;13.390;2023-06-24T10:45:57;10.26;;;6.08;;
56680;SDS011;42558;52.388;13.390;2023-06-24T10:48:27;11.40;;;6.65;;
56680;SDS011;42558;52.388;13.390;2023-06-24T10:50:57;9.31;;;6.65;;
56680;SDS011;42558;52.388;13.390;2023-06-24T10:53:27;10.45;;;6.08;;
56680;SDS011;42558;52.388;13.390;2023-06-24T10:55:58;9.31;;;6.46;;
56680;SDS011;42558;52.388;13.390;2023-06-24T10:58:28;10.83;;;6.65;;
56680;SDS011;42558;52.388;13.390;2023-06-24T11:01:06;14.82;;;6.84;;
56680;SDS011;42558;52.388;13.390;2023-06-24T11:03:39;9.88;;;7.79;;
56680;SDS011;42558;52.388;13.390;2023-06-24T11:06:10;9.50;;;6.84;;
56680;SDS011;42558;52.388;13.390;2023-06-24T11:08:45;10.45;;;7.03;;
56680;SDS011;42558;52.388;13.390;2023-06-24T11:11:19;9.12;;;6.84;;
56680;SDS011;42558;52.388;13.390;2023-06-24T11:13:50;9.69;;;6.65;;
56680;SDS011;42558;52.388;13.390;2023-06-24T11:16:21;10.45;;;6.84;;
56680;SDS011;42558;52.388;13.390;2023-06-24T11:18:50;9.88;;;6.46;;
56680;SDS011;42558;52.388;13.390;2023-06-24T11:21:28;9.69;;;6.84;;
56680;SDS011;42558;52.388;13.390;2023-06-24T11:24:01;11.02;;;6.84;;
56680;SDS011;42558;52.388;13.390;2023-06-24T11:26:32;9.50;;;6.65;;
56680;SDS011;42558;52.388;13.390;2023-06-24T11:29:09;9.88;;;7.41;;
56680;SDS011;42558;52.388;13.390;2023-06-24T11:31:40;10.64;;;7.41;;
56680;SDS011;42558;52.388;13.390;2023-06-24T11:34:10;10.45;;;7.03;;
56680;SDS011;42558;52.388;13.390;2023-06-24T11:36:40;10.07;;;6.65;;
56680;SDS011;42558;52.388;13.390;2023-06-24T11:39:27;12.35;;;7.79;;
56680;SDS011;42558;52.388;13.390;2023-06-24T11:41:57;9.31;;;6.84;;
56680;SDS011;42558;52.388;13.390;2023-06-24T11:44:25;9.69;;;6.46;;
56680;SDS011;42558;52.388;13.390;2023-06-24T11:47:04;10.07;;;6.84;;
56680;SDS011;42558;52.388;13.390;2023-06-24T11:50:08;12.92;;;7.41;;
56680;SDS011;42558;52.388;13.390;2023-06-24T11:52:47;11.78;;;6.84;;
56680;SDS011;42558;52.388;13.390;2023-06-24T11:55:22;11.21;;;7.22;;
56680;SDS011;42558;52.388;13.390;2023-06-24T11:58:01;12.92;;;7.22;;
56680;SDS011;42558;52.388;13.390;2023-06-24T12:00:42;8.74;;;6.27;;
56680;SDS011;42558;52.388;13.390;2023-06-24T12:03:13;9.31;;;6.84;;
56680;SDS011;42558;52.388;13.390;2023-06-24T12:05:46;11.59;;;6.27;;
56680;SDS011;42558;52.388;13.390;2023-06-24T12:08:17;11.97;;;6.65;;
56680;SDS011;42558;52.388;13.390;2023-06-24T12:10:47;9.69;;;7.22;;
56680;SDS011;42558;52.388;13.390;2023-06-24T12:13:18;11.02;;;6.65;;
56680;SDS011;42558;52.388;13.390;2023-06-24T12:15:48;9.88;;;6.65;;
56680;SDS011;42558;52.388;13.390;2023-06-24T12:18:18;10.83;;;7.41;;
56680;SDS011;42558;52.388;13.390;2023-06-24T12:20:48;10.26;;;6.84;;
56680;SDS011;42558;52.388;13.390;2023-06-24T12:23:18;12.16;;;7.22;;
56680;SDS011;42558;52.388;13.390;2023-06-24T12:25:48;9.31;;;6.27;;
56680;SDS011;42558;52.388;13.390;2023-06-24T12:28:18;9.69;;;6.46;;
56680;SDS011;42558;52.388;13.390;2023-06-24T12:30:48;13.68;;;8.17;;
56680;SDS011;42558;52.388;13.390;2023-06-24T12:33:18;12.73;;;7.03;;
56680;SDS011;42558;52.388;13.390;2023-06-24T12:35:50;10.07;;;7.03;;
56680;SDS011;42558;52.388;13.390;2023-06-24T12:38:20;9.88;;;7.41;;
56680;SDS011;42558;52.388;13.390;2023-06-24T12:40:50;11.02;;;7.03;;
56680;SDS011;42558;52.388;13.390;2023-06-24T12:43:20;11.78;;;7.79;;
56680;SDS011;42558;52.388;13.390;2023-06-24T12:45:50;12.16;;;7.79;;
56680;SDS011;42558;52.388;13.390;2023-06-24T12:48:21;10.45;;;7.03;;
56680;SDS011;42558;52.388;13.390;2023-06-24T12:50:51;10.64;;;6.46;;
56680;SDS011;42558;52.388;13.390;2023-06-24T12:53:22;10.07;;;6.84;;
56680;SDS011;42558;52.388;13.390;2023-06-24T12:55:53;9.31;;;6.65;;
56680;SDS011;42558;52.388;13.390;2023-06-24T12:58:23;13.49;;;6.65;;
56680;SDS011;42558;52.388;13.390;2023-06-24T13:00:55;10.26;;;6.84;;
56680;SDS011;42558;52.388;13.390;2023-06-24T13:03:26;14.06;;;7.60;;
56680;SDS011;42558;52.388;13.390;2023-06-24T13:05:56;10.07;;;6.27;;
56680;SDS011;42558;52.388;13.390;2023-06-24T13:08:27;9.12;;;6.46;;
56680;SDS011;42558;52.388;13.390;2023-06-24T13:10:56;10.64;;;7.03;;
56680;SDS011;42558;52.388;13.390;2023-06-24T13:13:26;11.21;;;7.03;;
56680;SDS011;42558;52.388;13.390;2023-06-24T13:15:57;11.40;;;6.65;;
56680;SDS011;42558;52.388;13.390;2023-06-24T13:18:27;10.07;;;6.65;;
56680;SDS011;42558;52.388;13.390;2023-06-24T13:20:57;11.02;;;6.84;;
56680;SDS011;42558;52.388;13.390;2023-06-24T13:23:42;12.54;;;7.22;;
56680;SDS011;42558;52.388;13.390;2023-06-24T13:26:10;10.45;;;8.36;;
56680;SDS011;42558;52.388;13.390;2023-06-24T13:28:39;11.97;;;7.79;;
56680;SDS011;42558;52.388;13.390;2023-06-24T13:31:07;11.59;;;7.41;;
56680;SDS011;42558;52.388;13.390;2023-06-24T13:33:36;11.40;;;7.98;;
56680;SDS011;42558;52.388;13.390;2023-06-24T13:36:07;10.26;;;7.03;;
56680;SDS011;42558;52.388;13.390;2023-06-24T13:38:41;11.21;;;7.60;;
56680;SDS011;42558;52.388;13.390;2023-06-24T13:41:11;11.97;;;8.17;;
56680;SDS011;42558;52.388;13.390;2023-06-24T13:43:41;10.07;;;7.03;;
56680;SDS011;42558;52.388;13.390;2023-06-24T13:46:11;11.40;;;7.79;;
56680;SDS011;42558;52.388;13.390;2023-06-24T13:48:41;11.02;;;7.22;;
56680;SDS011;42558;52.388;13.390;2023-06-24T13:51:12;11.97;;;8.17;;
56680;SDS011;42558;52.388;13.390;2023-06-24T13:53:42;11.02;;;7.03;;
56680;SDS011;42558;52.388;13.390;2023-06-24T13:56:13;12.16;;;7.41;;
56680;SDS011;42558;52.388;13.390;2023-06-24T13:58:44;10.07;;;7.03;;
56680;SDS011;42558;52.388;13.390;2023-06-24T14:01:14;10.07;;;7.03;;
56680;SDS011;42558;52.388;13.390;2023-06-24T14:03:43;11.59;;;7.41;;
56680;SDS011;42558;52.388;13.390;2023-06-24T14:06:15;10.64;;;7.60;;
56680;SDS011;42558;52.388;13.390;2023-06-24T14:08:49;11.40;;;8.17;;
56680;SDS011;42558;52.388;13.390;2023-06-24T14:11:20;11.97;;;7.79;;
56680;SDS011;42558;52.388;13.390;2023-06-24T14:13:50;13.87;;;8.55;;
56680;SDS011;42558;52.388;13.390;2023-06-24T14:16:23;13.11;;;8.36;;
56680;SDS011;42558;52.388;13.390;2023-06-24T14:18:53;11.97;;;7.79;;
56680;SDS011;42558;52.388;13.390;2023-06-24T14:21:23;10.07;;;7.41;;
56680;SDS011;42558;52.388;13.390;2023-06-24T14:23:54;12.54;;;7.41;;
56680;SDS011;42558;52.388;13.390;2023-06-24T14:26:29;11.21;;;7.98;;
56680;SDS011;42558;52.388;13.390;2023-06-24T14:28:59;11.59;;;7.98;;
56680;SDS011;42558;52.388;13.390;2023-06-24T14:31:31;9.69;;;7.41;;
56680;SDS011;42558;52.388;13.390;2023-06-24T14:34:01;19.19;;;8.74;;
56680;SDS011;42558;52.388;13.390;2023-06-24T14:39:49;10.83;;;7.41;;
56680;SDS011;42558;52.388;13.390;2023-06-24T14:42:19;10.07;;;7.22;;
56680;SDS011;42558;52.388;13.390;2023-06-24T15:08:01;11.59;;;7.22;;
56680;SDS011;42558;52.388;13.390;2023-06-24T15:10:32;10.83;;;6.84;;
56680;SDS011;42558;52.388;13.390;2023-06-24T15:13:02;12.54;;;7.41;;
56680;SDS011;42558;52.388;13.390;2023-06-24T15:15:31;12.54;;;7.98;;
56680;SDS011;42558;52.388;13.390;2023-06-24T15:18:00;13.68;;;8.17;;
56680;SDS011;42558;52.388;13.390;2023-06-24T15:20:29;10.83;;;7.41;;
56680;SDS011;42558;52.388;13.390;2023-06-24T15:22:59;12.73;;;9.12;;
56680;SDS011;42558;52.388;13.390;2023-06-24T15:25:29;11.40;;;8.74;;